Vancouver Fireboat 1 — VFB1 — position and weather

sailwx.info

Track history (hours):
 
Tides and Currents Weather Stations Pressure Air Temp Water Temp Dewpoint Dewpoint Depression Visibility Wind Speed Wind Dir Waves Ship Positions

Vancouver Fireboat 1

Last reported at 2017-Oct-13 18:22 UTC. Time now 2017-Oct-19 23:47 UTC.
Position N 45°37' W 122°38'.

Type: . MMSI: 338166967.

Date/timePositionNaut miles runAvg speedWind from/ knotsBaromVisibWave heightAir tempDewpointWater temp
2017-Oct-13 18:22N 45°37' W 122°38'1 3.2
2017-Oct-13 17:59N 45°36' W 122°39'3 4.1
2017-Oct-13 17:11N 45°38' W 122°43'0 2.1
2017-Oct-13 17:01N 45°38' W 122°43'1 2.2
2017-Oct-13 16:30N 45°38' W 122°41'  
2017-Oct-09 17:47N 45°37' W 122°38'312.1
2017-Oct-09 17:30N 45°38' W 122°42'1 2.7
2017-Oct-09 16:59N 45°39' W 122°44'1 1.7
2017-Oct-09 16:27N 45°38' W 122°43'2 3.7
2017-Oct-09 15:59N 45°37' W 122°41'1 2.1
2017-Oct-09 15:29N 45°37' W 122°40'1 3.0
2017-Oct-09 15:00N 45°37' W 122°38'0 0.0
2017-Oct-08 19:12N 45°37' W 122°38'0 0.0
2017-Oct-08 18:54N 45°37' W 122°38'0 0.0
2017-Oct-08 18:12N 45°37' W 122°38'0 0.0
2017-Oct-08 18:00N 45°37' W 122°38'0 0.0
2017-Oct-08 17:30N 45°37' W 122°38'0 0.0
2017-Oct-08 16:54N 45°37' W 122°38'0 0.0
2017-Oct-08 16:30N 45°37' W 122°38'0 0.0
2017-Oct-08 15:48N 45°37' W 122°38'0 0.0
2017-Oct-08 15:30N 45°37' W 122°38'0 0.0
2017-Oct-08 15:00N 45°37' W 122°38'0 0.0
2017-Oct-08 01:18N 45°37' W 122°38'0 0.0
2017-Oct-08 00:54N 45°37' W 122°38'0 0.0
2017-Oct-07 19:18N 45°37' W 122°38'0 0.0
2017-Oct-07 18:54N 45°37' W 122°38'0 0.0
2017-Oct-07 18:30N 45°37' W 122°38'0 0.0
2017-Oct-07 18:00N 45°37' W 122°38'0 0.0
2017-Oct-07 17:06N 45°37' W 122°38'0 0.0
2017-Oct-07 17:00N 45°37' W 122°38'0 0.0
2017-Oct-07 16:18N 45°37' W 122°38'0 0.0
2017-Oct-07 16:00N 45°37' W 122°38'0 0.0
2017-Oct-07 15:24N 45°37' W 122°38'0 0.0
2017-Oct-07 15:00N 45°37' W 122°38'0 0.0
2017-Oct-07 01:12N 45°37' W 122°38'0 0.0
2017-Oct-07 01:00N 45°37' W 122°38'0 0.0
2017-Oct-06 23:24N 45°37' W 122°38'0 0.0
2017-Oct-06 23:00N 45°37' W 122°38'0 0.0
2017-Oct-06 22:30N 45°37' W 122°38'0 0.0
2017-Oct-06 21:54N 45°37' W 122°38'0 0.0
2017-Oct-06 21:24N 45°37' W 122°38'0 0.0
2017-Oct-06 20:54N 45°37' W 122°38'0 0.0
2017-Oct-06 20:30N 45°37' W 122°38'0 0.0
2017-Oct-06 20:00N 45°37' W 122°38'0 0.0
2017-Oct-06 19:30N 45°37' W 122°38'0 0.0
2017-Oct-06 19:00N 45°37' W 122°38'0 0.0
2017-Oct-06 18:30N 45°37' W 122°38'0 0.0
2017-Oct-06 18:00N 45°37' W 122°38'0 0.0
2017-Oct-06 17:18N 45°37' W 122°38'0 0.0
2017-Oct-06 17:00N 45°37' W 122°38'0 0.0
2017-Oct-06 16:30N 45°37' W 122°38'0 0.0
2017-Oct-06 16:00N 45°37' W 122°38'0 0.0
2017-Oct-06 15:30N 45°37' W 122°38'0 0.0
2017-Oct-06 15:00N 45°37' W 122°38'0 0.0
2017-Oct-06 01:18N 45°37' W 122°38'0 0.0
2017-Oct-06 01:00N 45°37' W 122°38'0 0.0
2017-Oct-06 00:30N 45°37' W 122°38'0 0.0
2017-Oct-06 00:00N 45°37' W 122°38'0 0.0
2017-Oct-05 23:30N 45°37' W 122°38'0 0.0
2017-Oct-05 23:00N 45°37' W 122°38'0 0.0
2017-Oct-05 22:24N 45°37' W 122°38'0 0.0
2017-Oct-05 22:00N 45°37' W 122°38'0 0.0
2017-Oct-05 21:06N 45°37' W 122°38'0 0.1
2017-Oct-05 21:00N 45°37' W 122°38'0 0.0
2017-Oct-05 20:24N 45°37' W 122°38'0 0.0
2017-Oct-05 19:54N 45°37' W 122°38'0 0.0
2017-Oct-05 19:24N 45°37' W 122°38'0 0.0
2017-Oct-05 19:00N 45°37' W 122°38'0 0.0
2017-Oct-05 18:24N 45°37' W 122°38'0 0.0
2017-Oct-05 17:54N 45°37' W 122°38'0 0.0
2017-Oct-05 17:24N 45°37' W 122°38'0 0.0
2017-Oct-05 17:00N 45°37' W 122°38'0 0.0
2017-Oct-05 15:30N 45°37' W 122°38'0 0.0
2017-Oct-05 15:00N 45°37' W 122°38'0 0.0
2017-Oct-05 00:48N 45°37' W 122°38'0 0.0
2017-Oct-04 23:18N 45°37' W 122°38'2 6.1
2017-Oct-04 22:59N 45°37' W 122°40'4 9.1
2017-Oct-04 22:30N 45°35' W 122°46'4 4.8
2017-Oct-04 21:46N 45°33' W 122°42'0 0.0
2017-Oct-04 21:25N 45°33' W 122°42'0 0.0
2017-Oct-04 21:00N 45°33' W 122°42'1 2.4
2017-Oct-04 20:31N 45°34' W 122°44'4 8.9
2017-Oct-04 20:00N 45°37' W 122°47'510.8
2017-Oct-04 19:30N 45°37' W 122°40'2 1.1
2017-Oct-04 18:11N 45°37' W 122°38'0 0.0
2017-Oct-04 17:59N 45°37' W 122°38'0 0.0
2017-Oct-04 16:47N 45°37' W 122°38'0 0.0
2017-Oct-04 16:29N 45°37' W 122°38'0 0.0
2017-Oct-04 15:53N 45°37' W 122°38'0 0.0
2017-Oct-04 15:29N 45°37' W 122°38'0 0.0
2017-Oct-04 14:59N 45°37' W 122°38'0 0.0
2017-Oct-04 01:17N 45°37' W 122°38'0 0.0
2017-Oct-04 00:53N 45°37' W 122°38'0 0.0
2017-Oct-04 00:29N 45°37' W 122°38'0 0.0
2017-Oct-03 23:59N 45°37' W 122°38'0 0.0
2017-Oct-03 23:29N 45°37' W 122°38'0 0.0
2017-Oct-03 22:59N 45°37' W 122°38'0 0.0
2017-Oct-03 22:29N 45°37' W 122°38'0 0.0
2017-Oct-03 21:53N 45°37' W 122°38'0 0.0
2017-Oct-03 20:41N 45°37' W 122°38'0 0.0
2017-Oct-03 20:11N 45°37' W 122°38'0 0.0
2017-Oct-03 19:53N 45°37' W 122°38'0 0.0
2017-Oct-03 18:29N 45°37' W 122°38'  
Track history (hours):
 
Tides and Currents Weather Stations Pressure Air Temp Water Temp Dewpoint Dewpoint Depression Visibility Wind Speed Wind Dir Waves Ship Positions

Vancouver Fireboat 1

Last reported at 2017-Oct-13 18:22 UTC. Time now 2017-Oct-19 23:47 UTC.
Position N 45°37' W 122°38'.

Type: . MMSI: 338166967.

Date/timePositionNaut miles runAvg speedWind from/ knotsBaromVisibWave heightAir tempDewpointWater temp
2017-Oct-13 18:22N 45°37' W 122°38'1 3.2
2017-Oct-13 17:59N 45°36' W 122°39'3 4.1
2017-Oct-13 17:11N 45°38' W 122°43'0 2.1
2017-Oct-13 17:01N 45°38' W 122°43'1 2.2
2017-Oct-13 16:30N 45°38' W 122°41'  
2017-Oct-09 17:47N 45°37' W 122°38'312.1
2017-Oct-09 17:30N 45°38' W 122°42'1 2.7
2017-Oct-09 16:59N 45°39' W 122°44'1 1.7
2017-Oct-09 16:27N 45°38' W 122°43'2 3.7
2017-Oct-09 15:59N 45°37' W 122°41'1 2.1
2017-Oct-09 15:29N 45°37' W 122°40'1 3.0
2017-Oct-09 15:00N 45°37' W 122°38'0 0.0
2017-Oct-08 19:12N 45°37' W 122°38'0 0.0
2017-Oct-08 18:54N 45°37' W 122°38'0 0.0
2017-Oct-08 18:12N 45°37' W 122°38'0 0.0
2017-Oct-08 18:00N 45°37' W 122°38'0 0.0
2017-Oct-08 17:30N 45°37' W 122°38'0 0.0
2017-Oct-08 16:54N 45°37' W 122°38'0 0.0
2017-Oct-08 16:30N 45°37' W 122°38'0 0.0
2017-Oct-08 15:48N 45°37' W 122°38'0 0.0
2017-Oct-08 15:30N 45°37' W 122°38'0 0.0
2017-Oct-08 15:00N 45°37' W 122°38'0 0.0
2017-Oct-08 01:18N 45°37' W 122°38'0 0.0
2017-Oct-08 00:54N 45°37' W 122°38'0 0.0
2017-Oct-07 19:18N 45°37' W 122°38'0 0.0
2017-Oct-07 18:54N 45°37' W 122°38'0 0.0
2017-Oct-07 18:30N 45°37' W 122°38'0 0.0
2017-Oct-07 18:00N 45°37' W 122°38'0 0.0
2017-Oct-07 17:06N 45°37' W 122°38'0 0.0
2017-Oct-07 17:00N 45°37' W 122°38'0 0.0
2017-Oct-07 16:18N 45°37' W 122°38'0 0.0
2017-Oct-07 16:00N 45°37' W 122°38'0 0.0
2017-Oct-07 15:24N 45°37' W 122°38'0 0.0
2017-Oct-07 15:00N 45°37' W 122°38'0 0.0
2017-Oct-07 01:12N 45°37' W 122°38'0 0.0
2017-Oct-07 01:00N 45°37' W 122°38'0 0.0
2017-Oct-06 23:24N 45°37' W 122°38'0 0.0
2017-Oct-06 23:00N 45°37' W 122°38'0 0.0
2017-Oct-06 22:30N 45°37' W 122°38'0 0.0
2017-Oct-06 21:54N 45°37' W 122°38'0 0.0
2017-Oct-06 21:24N 45°37' W 122°38'0 0.0
2017-Oct-06 20:54N 45°37' W 122°38'0 0.0
2017-Oct-06 20:30N 45°37' W 122°38'0 0.0
2017-Oct-06 20:00N 45°37' W 122°38'0 0.0
2017-Oct-06 19:30N 45°37' W 122°38'0 0.0
2017-Oct-06 19:00N 45°37' W 122°38'0 0.0
2017-Oct-06 18:30N 45°37' W 122°38'0 0.0
2017-Oct-06 18:00N 45°37' W 122°38'0 0.0
2017-Oct-06 17:18N 45°37' W 122°38'0 0.0
2017-Oct-06 17:00N 45°37' W 122°38'0 0.0
2017-Oct-06 16:30N 45°37' W 122°38'0 0.0
2017-Oct-06 16:00N 45°37' W 122°38'0 0.0
2017-Oct-06 15:30N 45°37' W 122°38'0 0.0
2017-Oct-06 15:00N 45°37' W 122°38'0 0.0
2017-Oct-06 01:18N 45°37' W 122°38'0 0.0
2017-Oct-06 01:00N 45°37' W 122°38'0 0.0
2017-Oct-06 00:30N 45°37' W 122°38'0 0.0
2017-Oct-06 00:00N 45°37' W 122°38'0 0.0
2017-Oct-05 23:30N 45°37' W 122°38'0 0.0
2017-Oct-05 23:00N 45°37' W 122°38'0 0.0
2017-Oct-05 22:24N 45°37' W 122°38'0 0.0
2017-Oct-05 22:00N 45°37' W 122°38'0 0.0
2017-Oct-05 21:06N 45°37' W 122°38'0 0.1
2017-Oct-05 21:00N 45°37' W 122°38'0 0.0
2017-Oct-05 20:24N 45°37' W 122°38'0 0.0
2017-Oct-05 19:54N 45°37' W 122°38'0 0.0
2017-Oct-05 19:24N 45°37' W 122°38'0 0.0
2017-Oct-05 19:00N 45°37' W 122°38'0 0.0
2017-Oct-05 18:24N 45°37' W 122°38'0 0.0
2017-Oct-05 17:54N 45°37' W 122°38'0 0.0
2017-Oct-05 17:24N 45°37' W 122°38'0 0.0
2017-Oct-05 17:00N 45°37' W 122°38'0 0.0
2017-Oct-05 15:30N 45°37' W 122°38'0 0.0
2017-Oct-05 15:00N 45°37' W 122°38'0 0.0
2017-Oct-05 00:48N 45°37' W 122°38'0 0.0
2017-Oct-04 23:18N 45°37' W 122°38'2 6.1
2017-Oct-04 22:59N 45°37' W 122°40'4 9.1
2017-Oct-04 22:30N 45°35' W 122°46'4 4.8
2017-Oct-04 21:46N 45°33' W 122°42'0 0.0
2017-Oct-04 21:25N 45°33' W 122°42'0 0.0
2017-Oct-04 21:00N 45°33' W 122°42'1 2.4
2017-Oct-04 20:31N 45°34' W 122°44'4 8.9
2017-Oct-04 20:00N 45°37' W 122°47'510.8
2017-Oct-04 19:30N 45°37' W 122°40'2 1.1
2017-Oct-04 18:11N 45°37' W 122°38'0 0.0
2017-Oct-04 17:59N 45°37' W 122°38'0 0.0
2017-Oct-04 16:47N 45°37' W 122°38'0 0.0
2017-Oct-04 16:29N 45°37' W 122°38'0 0.0
2017-Oct-04 15:53N 45°37' W 122°38'0 0.0
2017-Oct-04 15:29N 45°37' W 122°38'0 0.0
2017-Oct-04 14:59N 45°37' W 122°38'0 0.0
2017-Oct-04 01:17N 45°37' W 122°38'0 0.0
2017-Oct-04 00:53N 45°37' W 122°38'0 0.0
2017-Oct-04 00:29N 45°37' W 122°38'0 0.0
2017-Oct-03 23:59N 45°37' W 122°38'0 0.0
2017-Oct-03 23:29N 45°37' W 122°38'0 0.0
2017-Oct-03 22:59N 45°37' W 122°38'0 0.0
2017-Oct-03 22:29N 45°37' W 122°38'0 0.0
2017-Oct-03 21:53N 45°37' W 122°38'0 0.0
2017-Oct-03 20:41N 45°37' W 122°38'0 0.0
2017-Oct-03 20:11N 45°37' W 122°38'0 0.0
2017-Oct-03 19:53N 45°37' W 122°38'0 0.0
2017-Oct-03 18:29N 45°37' W 122°38'  

Dump ship's entire track history